Terminal Aerodrome Forecast
Issued by NWS Charleston, WV

Current Version | Previous Version | Graphics & Text | Print | Product List | Glossary On
Versions: 1 2 3 4 5 6 7 8 9 10 11 12 13 14 15 16 17 18 19 20 21 22 23 24 25 26
000
FTUS41 KRLX 101739
TAFEKN
TAF
KEKN 101739Z 1018/1118 26011G19KT P6SM SCT025
     FM102200 25009G16KT P6SM BKN070
     FM111000 26006KT P6SM BKN035
     FM111200 26005KT P6SM BKN025
     FM111300 26005KT P6SM BKN035=

USA.gov is the U.S. government's official web portal to all federal, state and local government web resources and services.